createdAt,value
2023-05-17T00:00:33.681Z,10.87
2023-05-17T00:03:06.219Z,9.97
2023-05-17T00:05:38.635Z,11.05
2023-05-17T00:08:11.277Z,11.65
2023-05-17T00:10:44.118Z,10.70
2023-05-17T00:13:16.054Z,11.54
2023-05-17T00:15:48.886Z,11.18
2023-05-17T00:18:20.915Z,11.72
2023-05-17T00:20:53.754Z,11.03
2023-05-17T00:23:26.114Z,10.89
2023-05-17T00:25:58.031Z,10.85
2023-05-17T00:28:31.075Z,10.16
2023-05-17T00:31:03.562Z,10.54
2023-05-17T00:33:36.485Z,10.67
2023-05-17T00:36:09.017Z,11.06
2023-05-17T00:38:41.510Z,10.44
2023-05-17T00:41:13.880Z,11.47
2023-05-17T00:43:46.767Z,11.18
2023-05-17T00:46:18.696Z,10.51
2023-05-17T00:48:51.625Z,10.28
2023-05-17T00:51:24.904Z,10.52
2023-05-17T00:53:57.389Z,10.59
2023-05-17T00:56:30.455Z,10.30
2023-05-17T00:59:05.557Z,10.44
2023-05-17T01:01:42.023Z,11.10
2023-05-17T01:04:15.658Z,10.62
2023-05-17T01:06:48.328Z,10.48
2023-05-17T01:09:20.341Z,11.35
2023-05-17T01:12:59.741Z,10.96
2023-05-17T01:15:36.087Z,11.43
2023-05-17T01:18:21.875Z,11.23
2023-05-17T01:21:00.026Z,10.77
2023-05-17T01:23:47.439Z,11.15
2023-05-17T01:26:39.870Z,11.25
2023-05-17T01:29:14.647Z,9.36
2023-05-17T01:31:48.897Z,8.50
2023-05-17T01:34:30.144Z,8.03
2023-05-17T01:37:02.078Z,7.79
2023-05-17T01:39:36.685Z,7.72
2023-05-17T01:42:29.178Z,7.57
2023-05-17T01:45:32.579Z,7.38
2023-05-17T01:48:52.733Z,7.37
2023-05-17T01:51:34.167Z,7.25
2023-05-17T01:54:12.549Z,7.02
2023-05-17T01:56:49.176Z,6.88
2023-05-17T01:59:25.467Z,6.90
2023-05-17T02:02:07.372Z,6.82
2023-05-17T02:04:41.487Z,6.61
2023-05-17T02:07:13.496Z,6.75
2023-05-17T02:09:46.476Z,6.77
2023-05-17T02:12:18.545Z,6.83
2023-05-17T02:14:51.130Z,6.80
2023-05-17T02:17:23.148Z,6.87
2023-05-17T02:19:55.586Z,6.85
2023-05-17T02:22:27.983Z,6.76
2023-05-17T02:25:03.248Z,6.72
2023-05-17T02:27:36.180Z,6.61
2023-05-17T02:30:11.490Z,6.65
2023-05-17T02:32:43.730Z,6.68
2023-05-17T02:35:16.314Z,6.62
2023-05-17T02:37:48.452Z,6.62
2023-05-17T02:40:20.946Z,6.59
2023-05-17T02:42:52.900Z,6.52
2023-05-17T02:45:26.449Z,6.48
2023-05-17T02:47:58.968Z,6.41
2023-05-17T02:50:31.844Z,6.38
2023-05-17T02:53:04.634Z,6.50
2023-05-17T02:55:37.122Z,6.38
2023-05-17T02:58:09.606Z,6.36
2023-05-17T03:00:46.485Z,6.22
2023-05-17T03:03:20.753Z,6.22
2023-05-17T03:05:53.403Z,6.17
2023-05-17T03:08:27.503Z,6.21
2023-05-17T03:11:00.995Z,6.17
2023-05-17T03:13:33.065Z,6.18
2023-05-17T03:16:06.312Z,6.15
2023-05-17T03:18:39.305Z,6.20
2023-05-17T03:21:12.539Z,6.18
2023-05-17T03:23:45.588Z,6.27
2023-05-17T03:26:19.980Z,6.33
2023-05-17T03:28:55.582Z,6.30
2023-05-17T03:31:28.447Z,6.43
2023-05-17T03:34:01.054Z,6.43
2023-05-17T03:36:35.147Z,6.40
2023-05-17T03:39:07.893Z,6.33
2023-05-17T03:41:42.421Z,6.25
2023-05-17T03:44:15.562Z,6.24
2023-05-17T03:46:50.345Z,6.05
2023-05-17T03:49:23.826Z,6.06
2023-05-17T03:51:57.328Z,6.08
2023-05-17T03:54:29.545Z,5.98
2023-05-17T03:57:02.004Z,6.23
2023-05-17T03:59:35.072Z,6.33
2023-05-17T04:02:09.691Z,6.34
2023-05-17T04:04:49.550Z,6.37
2023-05-17T04:07:23.586Z,10.74
2023-05-17T04:10:02.769Z,7.56
2023-05-17T04:12:35.612Z,6.69
2023-05-17T04:15:08.276Z,6.55
2023-05-17T04:17:43.242Z,6.42
2023-05-17T04:20:15.407Z,6.29
2023-05-17T04:22:48.259Z,6.32
2023-05-17T04:25:21.081Z,6.35
2023-05-17T04:27:53.645Z,6.50
2023-05-17T04:30:25.892Z,6.57
2023-05-17T04:32:59.154Z,6.76
2023-05-17T04:35:31.194Z,6.99
2023-05-17T04:38:04.231Z,7.11
2023-05-17T04:40:37.055Z,7.09
2023-05-17T04:43:10.296Z,7.04
2023-05-17T04:45:42.955Z,7.20
2023-05-17T04:48:17.018Z,7.26
2023-05-17T04:50:49.214Z,6.98
2023-05-17T04:53:22.594Z,7.19
2023-05-17T04:55:55.320Z,7.31
2023-05-17T04:58:28.294Z,7.41
2023-05-17T05:01:03.661Z,7.50
2023-05-17T05:03:37.124Z,7.68
2023-05-17T05:06:12.292Z,7.75
2023-05-17T05:08:45.437Z,7.77
2023-05-17T05:11:18.419Z,7.77
2023-05-17T05:13:51.462Z,7.75
2023-05-17T05:16:24.969Z,7.68
2023-05-17T05:18:58.511Z,7.65
2023-05-17T05:21:31.330Z,7.71
2023-05-17T05:24:05.518Z,7.47
2023-05-17T05:26:38.006Z,7.71
2023-05-17T05:29:12.360Z,7.81
2023-05-17T05:31:44.626Z,7.75
2023-05-17T05:34:17.651Z,7.82
2023-05-17T05:36:50.100Z,7.81
2023-05-17T05:39:22.995Z,7.88
2023-05-17T05:41:55.862Z,7.81
2023-05-17T05:44:28.790Z,7.94
2023-05-17T05:47:02.122Z,7.98
2023-05-17T05:49:35.933Z,7.91
2023-05-17T05:52:08.894Z,7.92
2023-05-17T05:54:42.735Z,8.04
2023-05-17T05:57:15.148Z,8.22
2023-05-17T05:59:48.252Z,8.17
2023-05-17T06:02:21.272Z,8.29
2023-05-17T06:04:55.652Z,8.59
2023-05-17T06:07:28.662Z,8.71
2023-05-17T06:10:01.156Z,8.71
2023-05-17T06:12:33.714Z,8.91
2023-05-17T06:15:09.860Z,9.15
2023-05-17T06:17:42.079Z,9.01
2023-05-17T06:25:11.403Z,9.63
2023-05-17T06:27:44.287Z,9.46
2023-05-17T06:30:16.228Z,9.36
2023-05-17T06:32:48.695Z,9.44
2023-05-17T06:35:20.697Z,9.49
2023-05-17T06:37:53.181Z,9.81
2023-05-17T06:40:25.107Z,10.11
2023-05-17T06:42:57.907Z,10.91
2023-05-17T06:45:30.283Z,12.24
2023-05-17T06:48:02.833Z,14.18
2023-05-17T06:50:34.857Z,15.76
2023-05-17T06:53:07.736Z,16.74
2023-05-17T06:55:40.309Z,17.68
2023-05-17T06:58:12.730Z,17.63
2023-05-17T07:00:44.787Z,17.81
2023-05-17T07:03:17.769Z,17.92
2023-05-17T07:05:50.552Z,17.45
2023-05-17T07:08:23.009Z,17.34
2023-05-17T07:10:55.044Z,18.34
2023-05-17T07:13:27.860Z,19.59
2023-05-17T07:16:00.664Z,20.59
2023-05-17T07:18:33.288Z,21.84
2023-05-17T07:21:05.627Z,20.01
2023-05-17T07:23:38.155Z,17.57
2023-05-17T07:26:10.490Z,16.65
2023-05-17T07:28:42.850Z,16.55
2023-05-17T07:31:14.831Z,16.62
2023-05-17T07:33:47.730Z,17.55
2023-05-17T07:36:19.774Z,16.63
2023-05-17T07:38:55.672Z,16.12
2023-05-17T07:41:28.571Z,16.94
2023-05-17T07:44:01.016Z,15.72
2023-05-17T07:46:33.465Z,15.46
2023-05-17T07:49:06.098Z,17.27
2023-05-17T07:51:38.831Z,16.70
2023-05-17T07:54:23.786Z,14.57
2023-05-17T07:56:56.333Z,13.97
2023-05-17T07:59:28.810Z,13.99
2023-05-17T08:02:03.413Z,15.07
2023-05-17T08:04:36.753Z,14.27
2023-05-17T08:07:09.194Z,13.87
2023-05-17T08:09:44.451Z,13.81
2023-05-17T08:12:16.435Z,14.56
2023-05-17T08:14:49.294Z,15.52
2023-05-17T08:17:23.836Z,16.25
2023-05-17T08:22:52.929Z,14.16
2023-05-17T08:25:26.349Z,14.52
2023-05-17T08:27:58.923Z,14.74
2023-05-17T08:30:31.770Z,14.33
2023-05-17T08:33:03.929Z,13.80
2023-05-17T08:35:39.322Z,13.53
2023-05-17T08:38:11.440Z,13.33
2023-05-17T08:40:44.138Z,14.09
2023-05-17T08:43:16.702Z,16.17
2023-05-17T08:45:50.787Z,15.26
2023-05-17T08:48:23.919Z,16.05
2023-05-17T08:51:03.847Z,15.09
2023-05-17T08:53:36.595Z,14.16
2023-05-17T08:56:11.561Z,15.45
2023-05-17T08:58:56.414Z,17.84
2023-05-17T09:01:33.089Z,18.62
2023-05-17T09:04:09.774Z,18.19
2023-05-17T09:06:44.885Z,19.83
2023-05-17T09:09:18.753Z,19.27
2023-05-17T09:11:51.691Z,17.99
2023-05-17T09:14:23.694Z,19.02
2023-05-17T09:16:59.314Z,18.37
2023-05-17T09:19:31.717Z,18.51
2023-05-17T09:22:07.507Z,16.76
2023-05-17T09:24:41.506Z,16.13
2023-05-17T09:27:18.904Z,15.76
2023-05-17T09:32:25.355Z,16.32
2023-05-17T09:34:59.859Z,16.01
2023-05-17T09:37:32.799Z,16.90
2023-05-17T09:40:09.479Z,16.37
2023-05-17T09:42:42.381Z,15.70
2023-05-17T09:45:26.642Z,15.26
2023-05-17T09:48:16.361Z,16.01
2023-05-17T09:50:52.356Z,17.65
2023-05-17T09:53:29.347Z,19.05
2023-05-17T09:56:03.070Z,19.36
2023-05-17T09:58:38.311Z,19.46
2023-05-17T10:01:11.470Z,18.85
2023-05-17T10:03:44.282Z,18.28
2023-05-17T10:06:38.228Z,17.72
2023-05-17T10:09:16.330Z,16.80
2023-05-17T10:11:48.639Z,18.79
2023-05-17T10:14:34.223Z,19.27
2023-05-17T10:17:09.078Z,18.74
2023-05-17T10:22:38.723Z,18.05
2023-05-17T10:25:11.498Z,16.72
2023-05-17T10:27:45.088Z,16.41
2023-05-17T10:30:20.951Z,16.81
2023-05-17T10:32:57.139Z,16.31
2023-05-17T10:35:32.938Z,16.35
2023-05-17T10:38:05.289Z,16.31
2023-05-17T10:40:41.076Z,16.79
2023-05-17T10:43:14.716Z,16.90
2023-05-17T10:45:49.441Z,16.56
2023-05-17T10:48:21.603Z,16.97
2023-05-17T10:53:33.235Z,16.51
2023-05-17T10:56:06.203Z,16.76
2023-05-17T10:58:39.458Z,16.43
2023-05-17T11:01:53.253Z,16.43
2023-05-17T11:04:36.695Z,16.32
2023-05-17T11:07:27.585Z,16.61
2023-05-17T11:10:11.071Z,17.64
2023-05-17T11:12:54.497Z,18.42
2023-05-17T11:15:27.738Z,18.39
2023-05-17T11:18:01.337Z,17.45
2023-05-17T11:20:36.172Z,17.31
2023-05-17T11:23:18.787Z,16.86
2023-05-17T11:25:54.224Z,16.74
2023-05-17T11:28:47.729Z,16.78
2023-05-17T11:31:34.661Z,17.63
2023-05-17T11:34:07.170Z,17.48
2023-05-17T11:36:55.570Z,17.01
2023-05-17T11:39:28.648Z,16.96
2023-05-17T11:42:00.613Z,16.52
2023-05-17T11:44:35.319Z,16.36
2023-05-17T11:47:27.129Z,16.56
2023-05-17T11:50:06.996Z,16.34
2023-05-17T11:52:41.360Z,16.68
2023-05-17T11:55:16.425Z,16.86
2023-05-17T11:57:49.242Z,16.42
2023-05-17T12:00:28.835Z,16.27
2023-05-17T12:03:26.508Z,16.13
2023-05-17T12:06:15.931Z,16.47
2023-05-17T12:08:49.464Z,17.29
2023-05-17T12:11:23.109Z,17.33
2023-05-17T12:13:56.928Z,17.17
2023-05-17T12:16:30.506Z,17.00
2023-05-17T12:22:14.582Z,16.99
2023-05-17T12:25:26.154Z,16.52
2023-05-17T12:28:22.711Z,16.90
2023-05-17T12:30:58.873Z,16.96
2023-05-17T12:33:35.343Z,16.97
2023-05-17T12:36:10.718Z,16.55
2023-05-17T12:38:45.752Z,16.79
2023-05-17T12:41:20.531Z,17.03
2023-05-17T12:44:03.025Z,17.08
2023-05-17T12:46:54.857Z,17.62
2023-05-17T12:49:27.839Z,17.33
2023-05-17T12:52:06.172Z,17.24
2023-05-17T12:54:40.333Z,17.24
2023-05-17T12:57:16.220Z,17.12
2023-05-17T12:59:49.898Z,17.06
2023-05-17T13:02:24.248Z,17.05
2023-05-17T13:04:56.593Z,16.79
2023-05-17T13:07:50.881Z,16.57
2023-05-17T13:10:27.260Z,16.37
2023-05-17T13:13:00.624Z,16.55
2023-05-17T13:15:37.818Z,16.90
2023-05-17T13:18:18.262Z,17.40
2023-05-17T13:20:52.055Z,17.37
2023-05-17T13:23:24.656Z,17.20
2023-05-17T13:25:56.815Z,16.75
2023-05-17T13:28:29.851Z,16.52
2023-05-17T13:31:01.816Z,16.36
2023-05-17T13:33:34.987Z,16.34
2023-05-17T13:36:08.808Z,16.10
2023-05-17T13:38:42.030Z,16.61
2023-05-17T13:41:14.344Z,16.61
2023-05-17T13:43:48.659Z,17.29
2023-05-17T13:46:21.029Z,18.07
2023-05-17T13:48:53.418Z,17.99
2023-05-17T13:51:28.439Z,17.78
2023-05-17T13:54:01.795Z,17.93
2023-05-17T13:56:36.054Z,17.52
2023-05-17T13:59:07.974Z,17.24
2023-05-17T14:01:42.576Z,17.11
2023-05-17T14:04:15.414Z,16.87
2023-05-17T14:06:49.214Z,16.80
2023-05-17T14:09:24.295Z,16.37
2023-05-17T14:11:57.668Z,16.50
2023-05-17T14:14:31.834Z,16.22
2023-05-17T14:17:04.427Z,16.60
2023-05-17T14:19:38.468Z,17.14
2023-05-17T14:22:11.168Z,17.02
2023-05-17T14:24:43.928Z,16.71
2023-05-17T14:27:16.327Z,16.69
2023-05-17T14:29:49.609Z,16.76
2023-05-17T14:32:22.324Z,16.38
2023-05-17T14:34:54.743Z,16.58
2023-05-17T14:37:27.143Z,16.37
2023-05-17T14:40:22.554Z,16.69
2023-05-17T14:42:56.399Z,16.34
2023-05-17T14:45:29.830Z,16.40
2023-05-17T14:48:02.344Z,16.17
2023-05-17T14:50:35.504Z,16.16
2023-05-17T14:53:08.089Z,16.10
2023-05-17T14:55:42.262Z,15.87
2023-05-17T14:58:15.817Z,15.89
2023-05-17T15:00:54.111Z,15.68
2023-05-17T15:03:28.736Z,16.04
2023-05-17T15:06:03.558Z,16.82
2023-05-17T15:08:40.689Z,17.22
2023-05-17T15:11:14.810Z,17.49
2023-05-17T15:13:47.238Z,17.39
2023-05-17T15:16:19.853Z,17.48
2023-05-17T15:18:54.830Z,17.52
2023-05-17T15:21:28.103Z,17.41
2023-05-17T15:24:02.673Z,17.14
2023-05-17T15:26:35.450Z,16.96
2023-05-17T15:29:07.445Z,16.58
2023-05-17T15:31:40.701Z,16.58
2023-05-17T15:34:12.884Z,17.04
2023-05-17T15:36:46.301Z,17.31
2023-05-17T15:39:19.035Z,17.29
2023-05-17T15:41:52.299Z,17.03
2023-05-17T15:44:25.107Z,16.76
2023-05-17T15:46:57.501Z,16.56
2023-05-17T15:49:32.183Z,16.36
2023-05-17T15:52:04.597Z,16.45
2023-05-17T15:54:37.401Z,16.62
2023-05-17T15:57:09.588Z,16.40
2023-05-17T15:59:48.316Z,16.32
2023-05-17T16:02:20.946Z,16.59
2023-05-17T16:04:53.688Z,16.81
2023-05-17T16:07:28.909Z,16.91
2023-05-17T16:10:01.267Z,16.94
2023-05-17T16:12:34.088Z,16.84
2023-05-17T16:15:08.260Z,17.05
2023-05-17T16:17:40.847Z,17.15
2023-05-17T16:20:17.089Z,17.08
2023-05-17T16:22:51.076Z,17.14
2023-05-17T16:25:25.550Z,17.22
2023-05-17T16:27:57.900Z,17.00
2023-05-17T16:30:33.094Z,16.86
2023-05-17T16:33:08.254Z,16.92
2023-05-17T16:35:42.420Z,16.83
2023-05-17T16:38:14.384Z,16.81
2023-05-17T16:40:47.863Z,16.71
2023-05-17T16:43:20.645Z,16.80
2023-05-17T16:45:53.036Z,16.92
2023-05-17T16:48:26.393Z,16.85
2023-05-17T16:50:59.477Z,16.89
2023-05-17T16:53:54.096Z,17.16
2023-05-17T16:56:27.150Z,16.87
2023-05-17T16:59:03.353Z,16.83
2023-05-17T17:01:35.729Z,16.78
2023-05-17T17:04:08.936Z,16.55
2023-05-17T17:06:40.847Z,16.51
2023-05-17T17:09:14.613Z,16.38
2023-05-17T17:11:46.846Z,16.26
2023-05-17T17:14:19.951Z,16.24
2023-05-17T17:16:51.928Z,16.14
2023-05-17T17:19:27.829Z,15.98
2023-05-17T17:22:00.144Z,15.78
2023-05-17T17:24:34.010Z,15.66
2023-05-17T17:27:07.035Z,15.58
2023-05-17T17:29:39.069Z,15.46
2023-05-17T17:32:11.982Z,15.52
2023-05-17T17:34:44.506Z,15.42
2023-05-17T17:37:17.559Z,15.43
2023-05-17T17:39:50.752Z,15.53
2023-05-17T17:42:23.229Z,15.49
2023-05-17T17:44:55.663Z,15.43
2023-05-17T17:47:28.523Z,15.32
2023-05-17T17:50:01.064Z,15.24
2023-05-17T17:52:34.537Z,15.02
2023-05-17T17:55:07.715Z,14.96
2023-05-17T17:57:42.368Z,14.92
2023-05-17T18:00:18.662Z,14.64
2023-05-17T18:02:50.979Z,14.63
2023-05-17T18:05:25.746Z,14.60
2023-05-17T18:07:58.217Z,14.62
2023-05-17T18:10:31.949Z,14.79
2023-05-17T18:13:05.301Z,14.72
2023-05-17T18:15:37.201Z,14.53
2023-05-17T18:18:10.016Z,14.57
2023-05-17T18:20:42.415Z,14.96
2023-05-17T18:23:15.595Z,15.00
2023-05-17T18:25:50.501Z,15.17
2023-05-17T18:28:33.844Z,15.24
2023-05-17T18:31:14.943Z,15.29
2023-05-17T18:33:47.328Z,15.54
2023-05-17T18:36:19.255Z,14.98
2023-05-17T18:38:52.906Z,14.44
2023-05-17T18:41:26.090Z,14.22
2023-05-17T18:44:02.182Z,14.03
2023-05-17T18:46:34.106Z,13.80
2023-05-17T18:49:07.194Z,13.60
2023-05-17T18:51:39.278Z,13.48
2023-05-17T18:54:12.655Z,13.35
2023-05-17T18:56:44.958Z,13.18
2023-05-17T18:59:18.249Z,13.02
2023-05-17T19:01:50.604Z,12.91
2023-05-17T19:04:23.401Z,12.89
2023-05-17T19:06:56.208Z,12.85
2023-05-17T19:09:28.993Z,12.72
2023-05-17T19:12:05.675Z,12.66
2023-05-17T19:14:39.039Z,12.62
2023-05-17T19:17:11.051Z,12.43
2023-05-17T19:19:44.404Z,12.38
2023-05-17T19:22:16.746Z,12.24
2023-05-17T19:24:50.485Z,12.33
2023-05-17T19:27:23.676Z,12.20
2023-05-17T19:29:56.106Z,12.06
2023-05-17T19:32:30.637Z,11.93
2023-05-17T19:35:03.216Z,11.86
2023-05-17T19:37:36.201Z,11.94
2023-05-17T19:40:09.007Z,11.96
2023-05-17T19:42:48.891Z,11.84
2023-05-17T19:45:21.293Z,11.65
2023-05-17T19:47:54.809Z,11.69
2023-05-17T19:50:27.435Z,11.62
2023-05-17T19:53:01.294Z,11.55
2023-05-17T19:55:34.383Z,11.38
2023-05-17T19:58:07.144Z,11.18
2023-05-17T20:00:40.032Z,11.16
2023-05-17T20:03:12.499Z,11.04
2023-05-17T20:05:45.413Z,10.87
2023-05-17T20:08:17.553Z,10.77
2023-05-17T20:10:50.674Z,10.67
2023-05-17T20:13:26.112Z,10.62
2023-05-17T20:15:58.884Z,10.59
2023-05-17T20:18:32.083Z,10.59
2023-05-17T20:21:04.530Z,10.50
2023-05-17T20:23:36.884Z,10.49
2023-05-17T20:26:16.394Z,10.50
2023-05-17T20:28:48.702Z,10.43
2023-05-17T20:31:21.874Z,10.41
2023-05-17T20:33:54.824Z,10.28
2023-05-17T20:36:30.407Z,10.34
2023-05-17T20:39:02.781Z,10.32
2023-05-17T20:41:35.519Z,10.30
2023-05-17T20:44:07.423Z,10.33
2023-05-17T20:46:40.332Z,10.34
2023-05-17T20:49:12.645Z,10.50
2023-05-17T20:51:46.565Z,10.36
2023-05-17T20:54:18.884Z,10.39
2023-05-17T20:56:50.990Z,10.32
2023-05-17T20:59:24.215Z,10.21
2023-05-17T21:01:56.517Z,10.11
2023-05-17T21:04:29.364Z,10.10
2023-05-17T21:07:01.750Z,10.09
2023-05-17T21:09:35.179Z,10.11
2023-05-17T21:12:07.685Z,10.21
2023-05-17T21:14:40.445Z,10.09
2023-05-17T21:17:12.778Z,10.10
2023-05-17T21:19:46.278Z,10.23
2023-05-17T21:22:19.471Z,10.16
2023-05-17T21:24:52.932Z,11.62
2023-05-17T21:27:24.970Z,13.94
2023-05-17T21:29:58.157Z,13.81
2023-05-17T21:32:30.503Z,14.21
2023-05-17T21:35:03.802Z,14.98
2023-05-17T21:37:44.879Z,14.86
2023-05-17T21:40:17.212Z,13.95
2023-05-17T21:42:52.837Z,14.28
2023-05-17T21:45:25.465Z,14.29
2023-05-17T21:47:58.293Z,13.21
2023-05-17T21:50:31.064Z,14.39
2023-05-17T21:53:04.018Z,13.40
2023-05-17T21:55:51.264Z,13.52
2023-05-17T21:58:28.270Z,13.82
2023-05-17T22:01:02.306Z,13.76
2023-05-17T22:03:34.896Z,13.33
2023-05-17T22:06:08.122Z,14.14
2023-05-17T22:08:42.283Z,13.90
2023-05-17T22:11:15.379Z,13.35
2023-05-17T22:13:47.604Z,13.57
2023-05-17T22:16:24.228Z,13.60
2023-05-17T22:19:00.811Z,13.31
2023-05-17T22:21:33.270Z,13.84
2023-05-17T22:24:05.680Z,13.78
2023-05-17T22:26:39.469Z,12.38
2023-05-17T22:29:13.092Z,12.50
2023-05-17T22:31:47.707Z,13.09
2023-05-17T22:34:19.633Z,12.03
2023-05-17T22:36:52.350Z,12.68
2023-05-17T22:39:24.262Z,12.18
2023-05-17T22:41:56.964Z,12.97
2023-05-17T22:44:28.914Z,12.77
2023-05-17T22:47:02.457Z,12.90
2023-05-17T22:49:35.702Z,13.24
2023-05-17T22:52:08.981Z,12.22
2023-05-17T22:54:41.046Z,12.53
2023-05-17T22:57:13.768Z,12.44
2023-05-17T22:59:45.661Z,13.23
2023-05-17T23:02:18.813Z,12.97
2023-05-17T23:04:50.717Z,13.10
2023-05-17T23:07:23.729Z,13.06
2023-05-17T23:09:56.032Z,12.52
2023-05-17T23:12:28.203Z,12.72
2023-05-17T23:15:01.090Z,13.34
2023-05-17T23:17:34.395Z,13.69
2023-05-17T23:20:09.996Z,13.45
2023-05-17T23:22:43.591Z,11.52
2023-05-17T23:25:15.941Z,11.99
2023-05-17T23:27:49.082Z,10.72
2023-05-17T23:30:23.130Z,11.19
2023-05-17T23:32:55.557Z,9.82
2023-05-17T23:35:28.528Z,9.78
2023-05-17T23:38:00.721Z,11.60
2023-05-17T23:40:34.766Z,11.79
2023-05-17T23:43:08.639Z,10.73
2023-05-17T23:45:41.429Z,9.68
2023-05-17T23:48:16.513Z,10.30
2023-05-17T23:50:49.294Z,10.62
2023-05-17T23:53:23.421Z,10.70
2023-05-17T23:55:56.834Z,11.43
2023-05-17T23:58:28.770Z,11.30
